sensor_id;sensor_type;location;lat;lon;timestamp;temperature;humidity
22706;DHT22;11520;51.198;4.468;2023-09-30T00:05:04;14.30;99.90
22706;DHT22;11520;51.198;4.468;2023-09-30T00:07:30;14.30;99.90
22706;DHT22;11520;51.198;4.468;2023-09-30T02:58:23;12.80;99.90
22706;DHT22;11520;51.198;4.468;2023-09-30T03:00:49;12.80;99.90
22706;DHT22;11520;51.198;4.468;2023-09-30T03:03:15;12.80;99.90
22706;DHT22;11520;51.198;4.468;2023-09-30T03:05:43;12.70;99.90
22706;DHT22;11520;51.198;4.468;2023-09-30T03:08:10;12.70;99.90
22706;DHT22;11520;51.198;4.468;2023-09-30T03:10:36;12.70;99.90
22706;DHT22;11520;51.198;4.468;2023-09-30T03:13:06;12.70;99.90
22706;DHT22;11520;51.198;4.468;2023-09-30T05:14:35;12.50;99.90
22706;DHT22;11520;51.198;4.468;2023-09-30T05:45:31;12.50;99.90
22706;DHT22;11520;51.198;4.468;2023-09-30T05:48:01;12.50;99.90
22706;DHT22;11520;51.198;4.468;2023-09-30T06:29:16;13.40;99.90
22706;DHT22;11520;51.198;4.468;2023-09-30T06:31:42;13.60;99.90
22706;DHT22;11520;51.198;4.468;2023-09-30T06:34:08;13.70;99.90
22706;DHT22;11520;51.198;4.468;2023-09-30T06:36:36;13.70;99.90
22706;DHT22;11520;51.198;4.468;2023-09-30T06:39:03;13.80;99.90
22706;DHT22;11520;51.198;4.468;2023-09-30T06:41:31;13.90;99.90
22706;DHT22;11520;51.198;4.468;2023-09-30T06:43:57;14.00;99.90
22706;DHT22;11520;51.198;4.468;2023-09-30T06:46:22;14.10;99.90
22706;DHT22;11520;51.198;4.468;2023-09-30T06:48:49;14.30;99.90
22706;DHT22;11520;51.198;4.468;2023-09-30T06:51:17;14.50;99.90
22706;DHT22;11520;51.198;4.468;2023-09-30T06:53:43;14.70;99.90
22706;DHT22;11520;51.198;4.468;2023-09-30T06:56:09;14.90;99.90
22706;DHT22;11520;51.198;4.468;2023-09-30T07:03:39;15.10;99.90
22706;DHT22;11520;51.198;4.468;2023-09-30T07:06:05;15.10;99.90
22706;DHT22;11520;51.198;4.468;2023-09-30T07:08:31;15.10;99.90
22706;DHT22;11520;51.198;4.468;2023-09-30T07:10:56;15.30;99.90
22706;DHT22;11520;51.198;4.468;2023-09-30T07:13:22;15.50;99.90
22706;DHT22;11520;51.198;4.468;2023-09-30T07:15:48;15.70;99.90
22706;DHT22;11520;51.198;4.468;2023-09-30T07:18:13;15.90;99.90
22706;DHT22;11520;51.198;4.468;2023-09-30T07:20:39;16.20;99.90
22706;DHT22;11520;51.198;4.468;2023-09-30T07:23:05;16.40;99.90
22706;DHT22;11520;51.198;4.468;2023-09-30T07:25:31;16.50;99.90
22706;DHT22;11520;51.198;4.468;2023-09-30T07:28:00;16.60;99.90
22706;DHT22;11520;51.198;4.468;2023-09-30T07:30:26;17.00;99.90
22706;DHT22;11520;51.198;4.468;2023-09-30T07:32:52;17.40;99.90
22706;DHT22;11520;51.198;4.468;2023-09-30T07:35:18;17.60;99.90
22706;DHT22;11520;51.198;4.468;2023-09-30T07:37:44;17.90;99.90
22706;DHT22;11520;51.198;4.468;2023-09-30T07:40:10;18.00;99.90
22706;DHT22;11520;51.198;4.468;2023-09-30T07:42:36;18.20;99.90
22706;DHT22;11520;51.198;4.468;2023-09-30T07:45:03;18.50;99.90
22706;DHT22;11520;51.198;4.468;2023-09-30T07:47:31;18.80;99.90
22706;DHT22;11520;51.198;4.468;2023-09-30T07:50:00;19.40;99.90
22706;DHT22;11520;51.198;4.468;2023-09-30T07:52:26;20.30;99.90
22706;DHT22;11520;51.198;4.468;2023-09-30T07:54:51;20.90;99.90
22706;DHT22;11520;51.198;4.468;2023-09-30T07:57:17;21.60;99.90
22706;DHT22;11520;51.198;4.468;2023-09-30T07:59:42;22.40;99.90
22706;DHT22;11520;51.198;4.468;2023-09-30T08:04:36;23.20;99.90
22706;DHT22;11520;51.198;4.468;2023-09-30T08:07:02;23.80;99.90
22706;DHT22;11520;51.198;4.468;2023-09-30T08:09:28;24.30;99.90
22706;DHT22;11520;51.198;4.468;2023-09-30T08:11:54;24.80;99.90
22706;DHT22;11520;51.198;4.468;2023-09-30T08:14:19;25.10;99.90
22706;DHT22;11520;51.198;4.468;2023-09-30T08:16:45;25.00;99.90
22706;DHT22;11520;51.198;4.468;2023-09-30T08:26:54;25.30;99.90
22706;DHT22;11520;51.198;4.468;2023-09-30T08:29:22;25.40;99.90
22706;DHT22;11520;51.198;4.468;2023-09-30T08:31:48;24.40;99.90
22706;DHT22;11520;51.198;4.468;2023-09-30T08:34:16;24.50;99.90
22706;DHT22;11520;51.198;4.468;2023-09-30T08:36:42;24.30;99.90
22706;DHT22;11520;51.198;4.468;2023-09-30T08:54:40;24.60;99.90
22706;DHT22;11520;51.198;4.468;2023-09-30T08:57:09;25.10;99.90
22706;DHT22;11520;51.198;4.468;2023-09-30T08:59:35;25.40;99.90
22706;DHT22;11520;51.198;4.468;2023-09-30T09:02:08;25.60;99.90
22706;DHT22;11520;51.198;4.468;2023-09-30T09:04:36;25.80;99.90
22706;DHT22;11520;51.198;4.468;2023-09-30T09:07:02;25.70;99.90
22706;DHT22;11520;51.198;4.468;2023-09-30T09:09:28;26.10;99.90
22706;DHT22;11520;51.198;4.468;2023-09-30T09:11:54;27.00;99.90
22706;DHT22;11520;51.198;4.468;2023-09-30T09:14:22;28.20;99.90
22706;DHT22;11520;51.198;4.468;2023-09-30T09:17:01;29.00;96.90
22706;DHT22;11520;51.198;4.468;2023-09-30T09:19:27;29.90;95.60
22706;DHT22;11520;51.198;4.468;2023-09-30T09:21:58;30.80;93.10
22706;DHT22;11520;51.198;4.468;2023-09-30T09:24:34;31.30;90.00
22706;DHT22;11520;51.198;4.468;2023-09-30T09:27:11;31.60;85.20
22706;DHT22;11520;51.198;4.468;2023-09-30T09:29:38;32.20;82.10
22706;DHT22;11520;51.198;4.468;2023-09-30T09:32:17;32.10;77.80
22706;DHT22;11520;51.198;4.468;2023-09-30T09:34:44;32.30;76.80
22706;DHT22;11520;51.198;4.468;2023-09-30T09:37:21;32.50;73.40
22706;DHT22;11520;51.198;4.468;2023-09-30T09:39:55;32.80;72.80
22706;DHT22;11520;51.198;4.468;2023-09-30T09:42:32;33.40;71.70
22706;DHT22;11520;51.198;4.468;2023-09-30T09:50:14;32.40;68.30
22706;DHT22;11520;51.198;4.468;2023-09-30T09:52:48;31.70;69.90
22706;DHT22;11520;51.198;4.468;2023-09-30T09:55:20;31.20;72.40
22706;DHT22;11520;51.198;4.468;2023-09-30T09:57:48;30.50;72.50
22706;DHT22;11520;51.198;4.468;2023-09-30T10:00:25;30.80;73.70
22706;DHT22;11520;51.198;4.468;2023-09-30T10:02:51;31.30;72.80
22706;DHT22;11520;51.198;4.468;2023-09-30T10:05:19;30.90;72.60
22706;DHT22;11520;51.198;4.468;2023-09-30T10:07:56;30.90;73.90
22706;DHT22;11520;51.198;4.468;2023-09-30T10:10:24;30.50;73.90
22706;DHT22;11520;51.198;4.468;2023-09-30T10:12:50;30.70;74.20
22706;DHT22;11520;51.198;4.468;2023-09-30T10:18:02;31.20;71.40
22706;DHT22;11520;51.198;4.468;2023-09-30T10:23:18;30.10;74.80
22706;DHT22;11520;51.198;4.468;2023-09-30T10:25:48;30.30;74.40
22706;DHT22;11520;51.198;4.468;2023-09-30T10:28:34;30.90;74.10
22706;DHT22;11520;51.198;4.468;2023-09-30T10:31:11;32.00;70.90
22706;DHT22;11520;51.198;4.468;2023-09-30T10:36:30;33.70;63.80
22706;DHT22;11520;51.198;4.468;2023-09-30T10:38:56;33.70;64.20
22706;DHT22;11520;51.198;4.468;2023-09-30T10:46:57;35.20;58.00
22706;DHT22;11520;51.198;4.468;2023-09-30T10:51:58;33.00;60.80
22706;DHT22;11520;51.198;4.468;2023-09-30T10:54:29;33.20;60.70
22706;DHT22;11520;51.198;4.468;2023-09-30T10:56:56;33.50;59.20
22706;DHT22;11520;51.198;4.468;2023-09-30T10:59:26;34.10;58.40
22706;DHT22;11520;51.198;4.468;2023-09-30T11:01:52;34.70;57.00
22706;DHT22;11520;51.198;4.468;2023-09-30T11:04:20;35.40;55.40
22706;DHT22;11520;51.198;4.468;2023-09-30T11:06:46;35.10;53.60
22706;DHT22;11520;51.198;4.468;2023-09-30T11:11:42;34.90;54.10
22706;DHT22;11520;51.198;4.468;2023-09-30T11:19:13;34.00;55.00
22706;DHT22;11520;51.198;4.468;2023-09-30T11:21:43;33.70;55.20
22706;DHT22;11520;51.198;4.468;2023-09-30T11:24:09;32.80;57.20
22706;DHT22;11520;51.198;4.468;2023-09-30T11:31:41;32.60;55.60
22706;DHT22;11520;51.198;4.468;2023-09-30T11:34:08;32.80;55.20
22706;DHT22;11520;51.198;4.468;2023-09-30T11:36:36;32.70;55.70
22706;DHT22;11520;51.198;4.468;2023-09-30T11:39:02;32.40;56.00
22706;DHT22;11520;51.198;4.468;2023-09-30T11:41:40;32.80;56.00
22706;DHT22;11520;51.198;4.468;2023-09-30T11:44:07;32.90;54.20
22706;DHT22;11520;51.198;4.468;2023-09-30T11:46:47;32.80;54.40
22706;DHT22;11520;51.198;4.468;2023-09-30T11:49:36;31.80;53.80
22706;DHT22;11520;51.198;4.468;2023-09-30T11:52:05;30.90;55.30
22706;DHT22;11520;51.198;4.468;2023-09-30T11:54:34;29.90;58.10
22706;DHT22;11520;51.198;4.468;2023-09-30T11:57:03;29.50;58.80
22706;DHT22;11520;51.198;4.468;2023-09-30T11:59:29;29.60;58.90
22706;DHT22;11520;51.198;4.468;2023-09-30T12:07:00;29.40;55.50
22706;DHT22;11520;51.198;4.468;2023-09-30T12:09:25;29.10;54.40
22706;DHT22;11520;51.198;4.468;2023-09-30T12:11:53;28.90;55.90
22706;DHT22;11520;51.198;4.468;2023-09-30T12:14:22;28.90;54.90
22706;DHT22;11520;51.198;4.468;2023-09-30T12:16:48;28.80;54.80
22706;DHT22;11520;51.198;4.468;2023-09-30T12:19:15;28.90;54.70
22706;DHT22;11520;51.198;4.468;2023-09-30T12:21:41;29.40;55.00
22706;DHT22;11520;51.198;4.468;2023-09-30T12:24:08;29.20;55.20
22706;DHT22;11520;51.198;4.468;2023-09-30T12:26:35;29.00;56.00
22706;DHT22;11520;51.198;4.468;2023-09-30T12:29:07;28.80;56.60
22706;DHT22;11520;51.198;4.468;2023-09-30T12:31:34;28.70;57.10
22706;DHT22;11520;51.198;4.468;2023-09-30T12:34:00;28.50;56.80
22706;DHT22;11520;51.198;4.468;2023-09-30T12:46:49;27.90;59.90
22706;DHT22;11520;51.198;4.468;2023-09-30T12:49:15;27.90;59.60
22706;DHT22;11520;51.198;4.468;2023-09-30T12:51:41;27.80;60.20
22706;DHT22;11520;51.198;4.468;2023-09-30T13:07:03;27.40;62.60
22706;DHT22;11520;51.198;4.468;2023-09-30T13:09:29;27.60;62.70
22706;DHT22;11520;51.198;4.468;2023-09-30T13:11:55;27.80;62.30
22706;DHT22;11520;51.198;4.468;2023-09-30T13:14:20;27.70;61.70
22706;DHT22;11520;51.198;4.468;2023-09-30T13:16:46;27.20;61.80
22706;DHT22;11520;51.198;4.468;2023-09-30T13:19:12;27.00;64.10
22706;DHT22;11520;51.198;4.468;2023-09-30T13:21:37;26.90;64.30
22706;DHT22;11520;51.198;4.468;2023-09-30T13:24:03;26.90;63.60
22706;DHT22;11520;51.198;4.468;2023-09-30T13:26:32;26.50;65.90
22706;DHT22;11520;51.198;4.468;2023-09-30T13:28:58;26.10;66.40
22706;DHT22;11520;51.198;4.468;2023-09-30T13:31:24;26.20;65.80
22706;DHT22;11520;51.198;4.468;2023-09-30T13:33:50;26.30;67.00
22706;DHT22;11520;51.198;4.468;2023-09-30T13:36:15;26.20;67.50
22706;DHT22;11520;51.198;4.468;2023-09-30T13:38:41;26.00;68.70
22706;DHT22;11520;51.198;4.468;2023-09-30T13:41:07;25.90;69.30
22706;DHT22;11520;51.198;4.468;2023-09-30T13:43:32;25.80;70.20
22706;DHT22;11520;51.198;4.468;2023-09-30T13:46:03;25.90;69.90
22706;DHT22;11520;51.198;4.468;2023-09-30T13:48:29;26.00;69.50
22706;DHT22;11520;51.198;4.468;2023-09-30T13:50:54;25.90;69.90
22706;DHT22;11520;51.198;4.468;2023-09-30T13:53:20;25.90;70.40
22706;DHT22;11520;51.198;4.468;2023-09-30T13:55:46;26.10;71.70
22706;DHT22;11520;51.198;4.468;2023-09-30T14:00:47;25.60;70.60
22706;DHT22;11520;51.198;4.468;2023-09-30T14:03:13;25.60;70.00
22706;DHT22;11520;51.198;4.468;2023-09-30T14:05:39;25.70;69.90
22706;DHT22;11520;51.198;4.468;2023-09-30T14:08:05;25.60;69.20
22706;DHT22;11520;51.198;4.468;2023-09-30T14:10:33;25.10;68.20
22706;DHT22;11520;51.198;4.468;2023-09-30T14:12:59;24.60;71.40
22706;DHT22;11520;51.198;4.468;2023-09-30T14:15:24;23.80;74.50
22706;DHT22;11520;51.198;4.468;2023-09-30T14:17:54;23.50;76.00
22706;DHT22;11520;51.198;4.468;2023-09-30T14:20:21;23.60;75.90
22706;DHT22;11520;51.198;4.468;2023-09-30T14:22:46;23.90;76.30
22706;DHT22;11520;51.198;4.468;2023-09-30T14:25:13;23.60;74.90
22706;DHT22;11520;51.198;4.468;2023-09-30T14:27:39;23.40;76.10
22706;DHT22;11520;51.198;4.468;2023-09-30T14:30:06;23.40;76.20
22706;DHT22;11520;51.198;4.468;2023-09-30T14:32:32;23.30;77.90
22706;DHT22;11520;51.198;4.468;2023-09-30T14:34:57;23.20;77.90
22706;DHT22;11520;51.198;4.468;2023-09-30T14:37:23;23.00;80.70
22706;DHT22;11520;51.198;4.468;2023-09-30T14:39:49;23.30;80.60
22706;DHT22;11520;51.198;4.468;2023-09-30T14:42:15;23.10;81.00
22706;DHT22;11520;51.198;4.468;2023-09-30T14:44:41;23.20;79.30
22706;DHT22;11520;51.198;4.468;2023-09-30T14:47:06;23.00;80.10
22706;DHT22;11520;51.198;4.468;2023-09-30T14:49:32;22.90;81.70
22706;DHT22;11520;51.198;4.468;2023-09-30T14:51:58;22.90;81.50
22706;DHT22;11520;51.198;4.468;2023-09-30T14:54:24;22.90;81.20
22706;DHT22;11520;51.198;4.468;2023-09-30T14:59:18;22.70;83.30
22706;DHT22;11520;51.198;4.468;2023-09-30T15:01:44;22.70;84.90
22706;DHT22;11520;51.198;4.468;2023-09-30T15:04:10;23.00;85.80
22706;DHT22;11520;51.198;4.468;2023-09-30T15:06:35;23.10;85.50
22706;DHT22;11520;51.198;4.468;2023-09-30T15:09:01;23.30;85.10
22706;DHT22;11520;51.198;4.468;2023-09-30T15:11:29;23.40;85.90
22706;DHT22;11520;51.198;4.468;2023-09-30T15:13:55;23.50;84.50
22706;DHT22;11520;51.198;4.468;2023-09-30T15:16:22;23.50;83.50
22706;DHT22;11520;51.198;4.468;2023-09-30T15:18:48;23.60;84.10
22706;DHT22;11520;51.198;4.468;2023-09-30T15:21:14;23.70;83.20
22706;DHT22;11520;51.198;4.468;2023-09-30T15:23:41;23.60;83.20
22706;DHT22;11520;51.198;4.468;2023-09-30T15:26:06;23.60;82.80
22706;DHT22;11520;51.198;4.468;2023-09-30T15:41:23;22.70;88.00
22706;DHT22;11520;51.198;4.468;2023-09-30T15:43:49;22.80;88.50
22706;DHT22;11520;51.198;4.468;2023-09-30T15:46:15;22.80;89.10
22706;DHT22;11520;51.198;4.468;2023-09-30T15:48:41;22.60;88.90
22706;DHT22;11520;51.198;4.468;2023-09-30T15:51:06;22.50;89.20
22706;DHT22;11520;51.198;4.468;2023-09-30T15:53:34;22.50;89.60
22706;DHT22;11520;51.198;4.468;2023-09-30T15:56:03;22.30;90.40
22706;DHT22;11520;51.198;4.468;2023-09-30T15:58:29;22.30;90.50
22706;DHT22;11520;51.198;4.468;2023-09-30T16:01:01;22.30;91.20
22706;DHT22;11520;51.198;4.468;2023-09-30T16:08:41;22.00;91.60
22706;DHT22;11520;51.198;4.468;2023-09-30T16:16:19;21.60;93.80
22706;DHT22;11520;51.198;4.468;2023-09-30T16:18:47;21.40;94.20
22706;DHT22;11520;51.198;4.468;2023-09-30T16:21:14;21.40;95.10
22706;DHT22;11520;51.198;4.468;2023-09-30T16:23:40;21.20;95.50
22706;DHT22;11520;51.198;4.468;2023-09-30T16:51:54;20.80;99.90
22706;DHT22;11520;51.198;4.468;2023-09-30T16:54:19;20.80;99.90
22706;DHT22;11520;51.198;4.468;2023-09-30T16:56:45;20.60;99.90
22706;DHT22;11520;51.198;4.468;2023-09-30T16:59:10;20.60;99.90
22706;DHT22;11520;51.198;4.468;2023-09-30T17:01:36;20.50;99.90
22706;DHT22;11520;51.198;4.468;2023-09-30T17:09:16;20.30;99.90
22706;DHT22;11520;51.198;4.468;2023-09-30T17:11:42;20.20;99.90
22706;DHT22;11520;51.198;4.468;2023-09-30T17:14:08;20.20;99.90
22706;DHT22;11520;51.198;4.468;2023-09-30T17:16:33;20.10;99.90
22706;DHT22;11520;51.198;4.468;2023-09-30T17:18:59;20.00;99.90
22706;DHT22;11520;51.198;4.468;2023-09-30T17:21:45;20.00;99.90
22706;DHT22;11520;51.198;4.468;2023-09-30T17:24:11;19.90;99.90
22706;DHT22;11520;51.198;4.468;2023-09-30T17:26:38;19.90;99.90
22706;DHT22;11520;51.198;4.468;2023-09-30T17:29:09;19.80;99.90
22706;DHT22;11520;51.198;4.468;2023-09-30T17:31:47;19.70;99.90
22706;DHT22;11520;51.198;4.468;2023-09-30T17:35:07;19.70;99.90
22706;DHT22;11520;51.198;4.468;2023-09-30T17:38:07;19.60;99.90
22706;DHT22;11520;51.198;4.468;2023-09-30T17:40:33;19.70;99.90
22706;DHT22;11520;51.198;4.468;2023-09-30T17:45:26;19.70;99.90
22706;DHT22;11520;51.198;4.468;2023-09-30T17:50:27;19.60;99.90
22706;DHT22;11520;51.198;4.468;2023-09-30T17:52:53;19.60;99.90
22706;DHT22;11520;51.198;4.468;2023-09-30T17:55:19;19.60;99.90
22706;DHT22;11520;51.198;4.468;2023-09-30T17:57:46;19.60;99.90
22706;DHT22;11520;51.198;4.468;2023-09-30T18:00:19;19.60;99.90
22706;DHT22;11520;51.198;4.468;2023-09-30T18:02:45;19.40;99.90
22706;DHT22;11520;51.198;4.468;2023-09-30T18:05:11;19.30;99.90
22706;DHT22;11520;51.198;4.468;2023-09-30T18:07:36;19.20;99.90
22706;DHT22;11520;51.198;4.468;2023-09-30T18:10:02;19.20;99.90
22706;DHT22;11520;51.198;4.468;2023-09-30T18:12:28;19.00;99.90
22706;DHT22;11520;51.198;4.468;2023-09-30T18:14:53;18.80;99.90
22706;DHT22;11520;51.198;4.468;2023-09-30T18:17:19;18.80;99.90
22706;DHT22;11520;51.198;4.468;2023-09-30T18:19:45;18.80;99.90
22706;DHT22;11520;51.198;4.468;2023-09-30T18:22:13;18.70;99.90
22706;DHT22;11520;51.198;4.468;2023-09-30T18:24:39;18.70;99.90
22706;DHT22;11520;51.198;4.468;2023-09-30T18:27:05;18.60;99.90
22706;DHT22;11520;51.198;4.468;2023-09-30T18:29:31;18.60;99.90
22706;DHT22;11520;51.198;4.468;2023-09-30T18:31:57;18.50;99.90
22706;DHT22;11520;51.198;4.468;2023-09-30T18:34:23;18.50;99.90
22706;DHT22;11520;51.198;4.468;2023-09-30T18:36:48;18.30;99.90
22706;DHT22;11520;51.198;4.468;2023-09-30T18:39:14;18.30;99.90
22706;DHT22;11520;51.198;4.468;2023-09-30T18:41:40;18.20;99.90
22706;DHT22;11520;51.198;4.468;2023-09-30T18:44:05;18.10;99.90
22706;DHT22;11520;51.198;4.468;2023-09-30T18:46:31;18.10;99.90
22706;DHT22;11520;51.198;4.468;2023-09-30T18:48:57;18.00;99.90
22706;DHT22;11520;51.198;4.468;2023-09-30T18:51:22;17.90;99.90
22706;DHT22;11520;51.198;4.468;2023-09-30T18:58:59;17.80;99.90
22706;DHT22;11520;51.198;4.468;2023-09-30T19:01:26;17.70;99.90
22706;DHT22;11520;51.198;4.468;2023-09-30T19:03:53;17.60;99.90
22706;DHT22;11520;51.198;4.468;2023-09-30T19:06:20;17.50;99.90
22706;DHT22;11520;51.198;4.468;2023-09-30T19:08:45;17.50;99.90
22706;DHT22;11520;51.198;4.468;2023-09-30T19:11:11;17.40;99.90
22706;DHT22;11520;51.198;4.468;2023-09-30T19:13:39;17.40;99.90
22706;DHT22;11520;51.198;4.468;2023-09-30T19:16:05;17.40;99.90
22706;DHT22;11520;51.198;4.468;2023-09-30T19:18:31;17.40;99.90
22706;DHT22;11520;51.198;4.468;2023-09-30T19:31:14;17.10;99.90
22706;DHT22;11520;51.198;4.468;2023-09-30T19:33:42;17.10;99.90
22706;DHT22;11520;51.198;4.468;2023-09-30T19:36:09;17.00;99.90
22706;DHT22;11520;51.198;4.468;2023-09-30T19:38:35;17.00;99.90
22706;DHT22;11520;51.198;4.468;2023-09-30T19:41:02;16.90;99.90
22706;DHT22;11520;51.198;4.468;2023-09-30T19:43:27;16.90;99.90
22706;DHT22;11520;51.198;4.468;2023-09-30T19:46:02;16.80;99.90
22706;DHT22;11520;51.198;4.468;2023-09-30T19:48:28;16.70;99.90
22706;DHT22;11520;51.198;4.468;2023-09-30T19:50:54;16.70;99.90
22706;DHT22;11520;51.198;4.468;2023-09-30T19:53:20;16.70;99.90
22706;DHT22;11520;51.198;4.468;2023-09-30T19:55:46;16.70;99.90
22706;DHT22;11520;51.198;4.468;2023-09-30T20:03:18;16.50;99.90
22706;DHT22;11520;51.198;4.468;2023-09-30T20:05:44;16.50;99.90
22706;DHT22;11520;51.198;4.468;2023-09-30T20:08:10;16.50;99.90
22706;DHT22;11520;51.198;4.468;2023-09-30T20:10:36;16.50;99.90
22706;DHT22;11520;51.198;4.468;2023-09-30T20:13:03;16.40;99.90
22706;DHT22;11520;51.198;4.468;2023-09-30T20:15:34;16.40;99.90
22706;DHT22;11520;51.198;4.468;2023-09-30T20:18:01;16.40;99.90
22706;DHT22;11520;51.198;4.468;2023-09-30T20:20:27;16.30;99.90
22706;DHT22;11520;51.198;4.468;2023-09-30T20:22:53;16.20;99.90
22706;DHT22;11520;51.198;4.468;2023-09-30T20:25:18;16.20;99.90
22706;DHT22;11520;51.198;4.468;2023-09-30T20:27:44;16.10;99.90
22706;DHT22;11520;51.198;4.468;2023-09-30T20:30:10;16.10;99.90
22706;DHT22;11520;51.198;4.468;2023-09-30T20:32:36;16.00;99.90
22706;DHT22;11520;51.198;4.468;2023-09-30T20:37:37;16.00;99.90
22706;DHT22;11520;51.198;4.468;2023-09-30T20:40:05;16.00;99.90
22706;DHT22;11520;51.198;4.468;2023-09-30T20:42:30;15.90;99.90
22706;DHT22;11520;51.198;4.468;2023-09-30T20:44:56;15.90;99.90
22706;DHT22;11520;51.198;4.468;2023-09-30T20:47:22;15.90;99.90
22706;DHT22;11520;51.198;4.468;2023-09-30T20:49:48;15.90;99.90
22706;DHT22;11520;51.198;4.468;2023-09-30T20:52:14;15.80;99.90
22706;DHT22;11520;51.198;4.468;2023-09-30T20:54:40;15.80;99.90
22706;DHT22;11520;51.198;4.468;2023-09-30T20:57:05;15.80;99.90
22706;DHT22;11520;51.198;4.468;2023-09-30T21:01:59;15.70;99.90
22706;DHT22;11520;51.198;4.468;2023-09-30T21:09:29;15.60;99.90
22706;DHT22;11520;51.198;4.468;2023-09-30T21:11:55;15.60;99.90
22706;DHT22;11520;51.198;4.468;2023-09-30T21:14:20;15.60;99.90
22706;DHT22;11520;51.198;4.468;2023-09-30T21:16:47;15.60;99.90
22706;DHT22;11520;51.198;4.468;2023-09-30T21:24:19;15.50;99.90
22706;DHT22;11520;51.198;4.468;2023-09-30T21:26:45;15.50;99.90
22706;DHT22;11520;51.198;4.468;2023-09-30T21:29:11;15.40;99.90
22706;DHT22;11520;51.198;4.468;2023-09-30T21:31:36;15.40;99.90
22706;DHT22;11520;51.198;4.468;2023-09-30T21:34:02;15.30;99.90
22706;DHT22;11520;51.198;4.468;2023-09-30T21:36:28;15.30;99.90
22706;DHT22;11520;51.198;4.468;2023-09-30T21:38:54;15.30;99.90
22706;DHT22;11520;51.198;4.468;2023-09-30T21:41:19;15.20;99.90
22706;DHT22;11520;51.198;4.468;2023-09-30T21:43:45;15.20;99.90
22706;DHT22;11520;51.198;4.468;2023-09-30T21:46:11;15.20;99.90
22706;DHT22;11520;51.198;4.468;2023-09-30T21:48:37;15.20;99.90
22706;DHT22;11520;51.198;4.468;2023-09-30T21:51:03;15.20;99.90
22706;DHT22;11520;51.198;4.468;2023-09-30T21:53:30;15.20;99.90
22706;DHT22;11520;51.198;4.468;2023-09-30T21:55:56;15.10;99.90
22706;DHT22;11520;51.198;4.468;2023-09-30T21:58:22;15.10;99.90
22706;DHT22;11520;51.198;4.468;2023-09-30T22:00:48;15.10;99.90
22706;DHT22;11520;51.198;4.468;2023-09-30T22:03:14;15.20;99.90
22706;DHT22;11520;51.198;4.468;2023-09-30T22:05:44;15.20;99.90
22706;DHT22;11520;51.198;4.468;2023-09-30T22:08:23;15.20;99.90
22706;DHT22;11520;51.198;4.468;2023-09-30T22:10:50;15.20;99.90
22706;DHT22;11520;51.198;4.468;2023-09-30T22:13:18;15.20;99.90
22706;DHT22;11520;51.198;4.468;2023-09-30T22:15:43;15.20;99.90
22706;DHT22;11520;51.198;4.468;2023-09-30T22:18:10;15.20;99.90
22706;DHT22;11520;51.198;4.468;2023-09-30T22:20:39;15.20;99.90
22706;DHT22;11520;51.198;4.468;2023-09-30T22:23:05;15.20;99.90
22706;DHT22;11520;51.198;4.468;2023-09-30T22:25:32;15.30;99.90
22706;DHT22;11520;51.198;4.468;2023-09-30T22:28:03;15.20;99.90
22706;DHT22;11520;51.198;4.468;2023-09-30T22:30:29;15.20;99.90
22706;DHT22;11520;51.198;4.468;2023-09-30T22:32:56;15.20;99.90
22706;DHT22;11520;51.198;4.468;2023-09-30T22:35:23;15.20;99.90
22706;DHT22;11520;51.198;4.468;2023-09-30T22:37:49;15.20;99.90
22706;DHT22;11520;51.198;4.468;2023-09-30T22:40:15;15.20;99.90
22706;DHT22;11520;51.198;4.468;2023-09-30T22:42:41;15.20;99.90
22706;DHT22;11520;51.198;4.468;2023-09-30T22:45:08;15.10;99.90
22706;DHT22;11520;51.198;4.468;2023-09-30T22:47:45;15.10;99.90
22706;DHT22;11520;51.198;4.468;2023-09-30T22:50:15;15.20;99.90
22706;DHT22;11520;51.198;4.468;2023-09-30T22:52:43;15.10;99.90
22706;DHT22;11520;51.198;4.468;2023-09-30T22:55:16;15.10;99.90
22706;DHT22;11520;51.198;4.468;2023-09-30T22:57:44;15.10;99.90
22706;DHT22;11520;51.198;4.468;2023-09-30T23:00:11;15.10;99.90
22706;DHT22;11520;51.198;4.468;2023-09-30T23:02:38;15.10;99.90
